Time;durP1;ratioP1;P1;durP2;ratioP2;P2;SDS_P1;SDS_P2;PMS_P1;PMS_P2;Temp;Humidity;BMP_temperature;BMP_pressure;BME280_temperature;BME280_humidity;BME280_pressure;Samples;Min_cycle;Max_cycle;Signal;HPM_P1;HPM_P2
2022/12/16 00:01:08;;;;;;;171.50;87.20;;;;;;;;;;4407879;32;320018;-85
2022/12/16 00:03:36;;;;;;;159.10;83.73;;;;;;;;;;4417662;32;319743;-85
2022/12/16 00:06:03;;;;;;;164.70;84.83;;;;;;;;;;4408276;32;320029;-82
2022/12/16 00:08:34;;;;;;;180.13;86.60;;;;;;;;;;4419125;32;320434;-80
2022/12/16 00:11:04;;;;;;;167.40;81.17;;;;;;;;;;4408339;32;319875;-82
2022/12/16 00:13:33;;;;;;;152.40;75.80;;;;;;;;;;4418287;32;320046;-82
2022/12/16 00:16:04;;;;;;;153.50;72.40;;;;;;;;;;4408452;32;327686;-81
2022/12/16 00:18:32;;;;;;;157.80;70.53;;;;;;;;;;4418028;32;324987;-84
2022/12/16 00:20:59;;;;;;;149.63;70.60;;;;;;;;;;4406966;32;320063;-83
2022/12/16 00:23:27;;;;;;;146.17;65.23;;;;;;;;;;4417177;32;319781;-86
2022/12/16 00:25:55;;;;;;;141.30;66.23;;;;;;;;;;4407578;32;320167;-82
2022/12/16 00:28:24;;;;;;;140.07;68.60;;;;;;;;;;4418166;32;320180;-85
2022/12/16 00:30:53;;;;;;;160.77;71.10;;;;;;;;;;4407460;32;319973;-80
2022/12/16 00:33:22;;;;;;;137.70;69.10;;;;;;;;;;4417283;32;319936;-80
2022/12/16 00:35:50;;;;;;;126.47;66.80;;;;;;;;;;4406590;32;320584;-82
2022/12/16 00:38:17;;;;;;;144.00;67.63;;;;;;;;;;4419554;32;320249;-81
2022/12/16 00:40:46;;;;;;;135.07;66.87;;;;;;;;;;4417922;32;320349;-81
2022/12/16 00:43:13;;;;;;;126.47;66.67;;;;;;;;;;4404711;32;419166;-81
2022/12/16 00:45:42;;;;;;;131.80;67.37;;;;;;;;;;4418644;32;324867;-81
2022/12/16 00:48:09;;;;;;;121.97;67.07;;;;;;;;;;4407099;32;320300;-84
2022/12/16 00:50:37;;;;;;;134.97;68.17;;;;;;;;;;4417615;32;319921;-86
2022/12/16 00:53:05;;;;;;;124.17;65.63;;;;;;;;;;4407505;32;320085;-81
2022/12/16 00:55:33;;;;;;;146.67;70.30;;;;;;;;;;4418273;32;320089;-86
2022/12/16 00:58:00;;;;;;;148.40;69.10;;;;;;;;;;4409140;32;320088;-86
2022/12/16 01:00:28;;;;;;;156.20;72.93;;;;;;;;;;4417803;32;319774;-84
2022/12/16 01:02:56;;;;;;;164.03;78.90;;;;;;;;;;4407172;32;320016;-85
2022/12/16 01:05:25;;;;;;;182.43;85.20;;;;;;;;;;4417268;32;320074;-86
2022/12/16 01:07:54;;;;;;;163.23;81.93;;;;;;;;;;4407943;32;319866;-86
2022/12/16 01:10:23;;;;;;;180.50;82.47;;;;;;;;;;4416090;32;347356;-83
2022/12/16 01:12:50;;;;;;;178.27;84.70;;;;;;;;;;4407721;32;319954;-90
2022/12/16 01:15:19;;;;;;;192.30;84.13;;;;;;;;;;4418628;32;319741;-79
2022/12/16 01:17:46;;;;;;;161.10;76.50;;;;;;;;;;4418509;32;320353;-81
2022/12/16 01:20:15;;;;;;;192.77;87.73;;;;;;;;;;4403302;32;418941;-85
2022/12/16 01:22:43;;;;;;;173.90;81.63;;;;;;;;;;4415836;32;320056;-81
2022/12/16 01:25:13;;;;;;;174.50;77.67;;;;;;;;;;4407596;32;320041;-85
2022/12/16 01:27:40;;;;;;;173.53;82.00;;;;;;;;;;4417557;32;319956;-81
2022/12/16 01:30:09;;;;;;;174.63;77.63;;;;;;;;;;4406453;32;319737;-79
2022/12/16 01:32:37;;;;;;;173.23;80.10;;;;;;;;;;4416905;32;319963;-81
2022/12/16 01:35:05;;;;;;;185.23;82.57;;;;;;;;;;4407581;32;319768;-83
2022/12/16 01:37:34;;;;;;;198.83;89.10;;;;;;;;;;4416783;32;319827;-82
2022/12/16 01:40:02;;;;;;;181.63;83.77;;;;;;;;;;4406190;32;319869;-81
2022/12/16 01:42:32;;;;;;;181.90;80.60;;;;;;;;;;4416252;32;328999;-80
2022/12/16 01:45:29;;;;;;;174.10;78.83;;;;;;;;;;4406473;32;320429;-86
2022/12/16 01:48:00;;;;;;;216.07;85.93;;;;;;;;;;4406693;32;320042;-80
2022/12/16 01:50:30;;;;;;;153.30;71.83;;;;;;;;;;4417660;32;319766;-81
2022/12/16 01:53:03;;;;;;;151.23;72.13;;;;;;;;;;4405141;32;356747;-82
2022/12/16 01:55:34;;;;;;;157.33;72.50;;;;;;;;;;4418034;32;319906;-81
2022/12/16 01:58:08;;;;;;;168.00;76.20;;;;;;;;;;4406379;32;320133;-85
2022/12/16 02:00:36;;;;;;;213.60;84.97;;;;;;;;;;4416344;32;319904;-81
2022/12/16 02:03:05;;;;;;;175.90;76.33;;;;;;;;;;4405122;32;320209;-83
2022/12/16 02:05:35;;;;;;;224.10;99.93;;;;;;;;;;4417397;32;319947;-79
2022/12/16 02:08:11;;;;;;;261.43;100.53;;;;;;;;;;4407495;32;320235;-85
2022/12/16 02:10:49;;;;;;;205.70;93.27;;;;;;;;;;4417000;32;320689;-85
2022/12/16 02:13:26;;;;;;;225.67;94.23;;;;;;;;;;4402584;32;419140;-86
2022/12/16 02:16:01;;;;;;;198.03;87.93;;;;;;;;;;4407308;32;320001;-79
2022/12/16 02:18:42;;;;;;;195.00;84.20;;;;;;;;;;4415766;32;320033;-85
2022/12/16 02:21:32;;;;;;;218.57;94.87;;;;;;;;;;4405703;32;319828;-83
2022/12/16 02:24:33;;;;;;;202.33;87.73;;;;;;;;;;4406717;32;319823;-82
2022/12/16 02:27:34;;;;;;;160.10;78.00;;;;;;;;;;4404534;32;320065;-81
2022/12/16 02:30:27;;;;;;;176.50;84.10;;;;;;;;;;4405215;32;319770;-82
2022/12/16 02:33:07;;;;;;;136.67;57.43;;;;;;;;;;4406181;32;319905;-84
2022/12/16 02:35:42;;;;;;;138.80;61.80;;;;;;;;;;4417361;32;319743;-82
2022/12/16 02:38:21;;;;;;;115.97;52.63;;;;;;;;;;4407390;32;319944;-85
2022/12/16 02:40:55;;;;;;;90.60;43.33;;;;;;;;;;4405915;32;319864;-79
2022/12/16 02:43:48;;;;;;;131.83;51.90;;;;;;;;;;4416937;32;318993;-80
2022/12/16 02:46:18;;;;;;;198.33;51.10;;;;;;;;;;4402782;32;420317;-79
2022/12/16 02:48:46;;;;;;;91.23;45.67;;;;;;;;;;4416397;32;336851;-85
2022/12/16 02:51:13;;;;;;;89.77;43.63;;;;;;;;;;4403952;32;420091;-82
2022/12/16 02:53:46;;;;;;;99.73;43.47;;;;;;;;;;4402650;32;318617;-80
2022/12/16 02:56:25;;;;;;;84.40;41.37;;;;;;;;;;4396771;32;417421;-83
2022/12/16 02:58:58;;;;;;;80.90;38.63;;;;;;;;;;4405452;32;319074;-83
2022/12/16 03:01:35;;;;;;;122.40;43.63;;;;;;;;;;4416149;32;318751;-81
2022/12/16 03:04:08;;;;;;;113.47;43.70;;;;;;;;;;4402576;32;319882;-85
2022/12/16 03:06:39;;;;;;;111.00;43.97;;;;;;;;;;4417147;32;320026;-79
2022/12/16 03:09:10;;;;;;;173.83;54.40;;;;;;;;;;4406718;32;319899;-84
2022/12/16 03:11:40;;;;;;;89.20;42.87;;;;;;;;;;4415816;32;319912;-85
2022/12/16 03:14:10;;;;;;;67.90;35.27;;;;;;;;;;4406894;32;318712;-79
2022/12/16 03:16:40;;;;;;;68.90;36.57;;;;;;;;;;4416403;32;318656;-85
2022/12/16 03:19:10;;;;;;;72.87;37.77;;;;;;;;;;4404701;32;318774;-85
2022/12/16 03:21:44;;;;;;;84.30;39.63;;;;;;;;;;4416412;32;319121;-85
2022/12/16 03:24:14;;;;;;;87.83;38.73;;;;;;;;;;4404621;32;319138;-83
2022/12/16 03:26:48;;;;;;;98.47;41.20;;;;;;;;;;4414957;32;318718;-84
2022/12/16 03:29:22;;;;;;;70.77;37.03;;;;;;;;;;4402436;32;418013;-85
2022/12/16 03:31:56;;;;;;;64.57;31.10;;;;;;;;;;4404448;32;318806;-80
2022/12/16 03:34:32;;;;;;;55.77;30.10;;;;;;;;;;4416494;32;318652;-79
2022/12/16 03:37:03;;;;;;;71.57;29.57;;;;;;;;;;4405447;32;319175;-81
2022/12/16 03:39:33;;;;;;;52.17;27.67;;;;;;;;;;4416499;32;319116;-79
2022/12/16 03:42:02;;;;;;;52.90;29.77;;;;;;;;;;4404472;32;318632;-81
2022/12/16 03:44:30;;;;;;;58.07;26.30;;;;;;;;;;4419005;32;318530;-85
2022/12/16 03:46:59;;;;;;;51.00;23.93;;;;;;;;;;4408179;32;318756;-85
2022/12/16 03:49:26;;;;;;;52.50;25.87;;;;;;;;;;4418446;32;318778;-87
2022/12/16 03:51:55;;;;;;;53.10;27.83;;;;;;;;;;4408130;32;318949;-85
2022/12/16 03:54:23;;;;;;;73.30;30.57;;;;;;;;;;4418238;32;317749;-84
2022/12/16 03:56:50;;;;;;;53.60;31.50;;;;;;;;;;4408417;32;319044;-79
2022/12/16 03:59:18;;;;;;;68.50;32.40;;;;;;;;;;4418667;32;355122;-81
2022/12/16 04:01:45;;;;;;;57.60;30.43;;;;;;;;;;4419998;32;319294;-85
2022/12/16 04:04:14;;;;;;;53.70;30.00;;;;;;;;;;4405788;32;418269;-79
2022/12/16 04:06:42;;;;;;;47.10;26.47;;;;;;;;;;4417686;32;346902;-78
2022/12/16 04:09:09;;;;;;;47.03;27.60;;;;;;;;;;4406409;32;318930;-81
2022/12/16 04:25:30;;;;;;;80.33;41.63;;;;;;;;;;4406446;32;389797;-80
2022/12/16 04:27:57;;;;;;;62.80;34.43;;;;;;;;;;4404834;32;319096;-85
2022/12/16 04:30:26;;;;;;;68.93;30.97;;;;;;;;;;4417968;32;319527;-86
